Alegria, Brazil
Current Conditions -  °F | °C
As of 3:00 PM on Wednesday 26 Nov 2014 (Local Time) from SBCH Reporting Station
Scattered Clouds Scattered Clouds  
Wind Chill: 82°   Ceiling: Unl
Heat Index: 85°   Visibility: 6mi
Dew Point: 68°   Wind: 9mph
Humidity: 62%   Direction: 280°W
Pressure: 29.85"   Gusts: NA
Location:  27.83°S, 54.06°W
Report Text: SBCH 261700Z 28008KT 9999 SCT020 28/20 Q1011
Loading
Personal Weather Stations






























Interactive Weather Map New forecast layout! Learn more

10-Day Weather Forecast

Advertisements
Track Severe Weather on mobile